Time;durP1;ratioP1;P1;durP2;ratioP2;P2;SDS_P1;SDS_P2;PMS_P1;PMS_P2;Temp;Humidity;BMP_temperature;BMP_pressure;BME280_temperature;BME280_humidity;BME280_pressure;Samples;Min_cycle;Max_cycle;Signal;HPM_P1;HPM_P2
2023/09/01 00:04:46;;;;;;;3.60;2.00;;;23.90;64.20;;;;;;222971;1246;24189;-53
2023/09/01 00:09:50;;;;;;;3.40;1.90;;;23.80;64.20;;;;;;222435;1263;22540;-54
2023/09/01 00:14:53;;;;;;;3.00;2.10;;;23.80;64.40;;;;;;222891;1259;259483;-52
2023/09/01 00:19:56;;;;;;;1.90;1.60;;;23.80;64.60;;;;;;223278;1244;23934;-53
2023/09/01 00:24:59;;;;;;;5.50;2.30;;;23.90;64.30;;;;;;223168;1256;22515;-51
2023/09/01 00:30:02;;;;;;;3.50;1.90;;;23.80;64.30;;;;;;223226;1261;24231;-55
2023/09/01 00:35:05;;;;;;;2.40;1.80;;;23.80;64.20;;;;;;223545;1254;22729;-53
2023/09/01 00:40:09;;;;;;;3.20;2.10;;;23.80;64.30;;;;;;223568;1267;22529;-52
2023/09/01 00:45:12;;;;;;;3.30;1.90;;;23.80;65.10;;;;;;223482;1266;22518;-53
2023/09/01 00:50:15;;;;;;;2.00;1.70;;;23.80;64.60;;;;;;223517;1263;24073;-54
2023/09/01 00:55:18;;;;;;;2.80;1.70;;;23.70;64.50;;;;;;223909;1257;24279;-51
2023/09/01 01:00:21;;;;;;;3.30;2.00;;;23.70;64.60;;;;;;223325;1263;24245;-50
2023/09/01 01:05:33;;;;;;;2.70;2.00;;;23.70;64.50;;;;;;222936;1262;22624;-53
2023/09/01 01:10:51;;;;;;;2.50;2.00;;;23.60;64.60;;;;;;222625;1268;24266;-50
2023/09/01 01:15:57;;;;;;;2.60;1.90;;;23.60;64.80;;;;;;222633;1268;22518;-54
2023/09/01 01:21:11;;;;;;;1.80;1.60;;;23.60;64.90;;;;;;222369;1263;22518;-52
2023/09/01 01:26:15;;;;;;;2.90;2.10;;;23.60;64.80;;;;;;222463;1253;24183;-54
2023/09/01 01:31:20;;;;;;;1.70;1.50;;;23.60;64.80;;;;;;222634;1265;24028;-53
2023/09/01 01:36:37;;;;;;;2.60;1.90;;;23.60;64.90;;;;;;222603;1265;24984;-52
2023/09/01 01:41:56;;;;;;;2.90;1.40;;;23.60;65.00;;;;;;222837;1263;24342;-51
2023/09/01 01:47:03;;;;;;;2.60;1.50;;;23.60;64.90;;;;;;222796;1260;22664;-53
2023/09/01 01:52:08;;;;;;;2.60;1.60;;;23.60;64.80;;;;;;222971;1263;24293;-51
2023/09/01 01:57:14;;;;;;;1.90;1.60;;;23.60;64.80;;;;;;222834;1259;22531;-50
2023/09/01 02:02:17;;;;;;;2.20;1.90;;;23.50;64.80;;;;;;222585;1266;22521;-56
2023/09/01 02:07:23;;;;;;;2.90;2.30;;;23.50;65.40;;;;;;222735;1266;22583;-52
2023/09/01 02:12:29;;;;;;;2.10;1.70;;;23.50;64.90;;;;;;222239;1262;25422;-50
2023/09/01 02:17:34;;;;;;;1.80;1.30;;;23.50;65.00;;;;;;223649;1261;24967;-52
2023/09/01 02:22:37;;;;;;;2.30;1.90;;;23.50;64.70;;;;;;222840;1266;24360;-51
2023/09/01 02:27:41;;;;;;;3.20;1.80;;;23.60;64.80;;;;;;222525;1261;22645;-52
2023/09/01 02:32:44;;;;;;;1.60;1.40;;;23.50;64.60;;;;;;222828;1263;22523;-53
2023/09/01 02:37:46;;;;;;;1.50;1.40;;;23.50;64.30;;;;;;222255;1261;22509;-54
2023/09/01 02:42:51;;;;;;;1.40;1.30;;;23.50;65.00;;;;;;222467;1254;23499;-53
2023/09/01 02:47:54;;;;;;;1.70;1.60;;;23.50;65.00;;;;;;222297;1263;22573;-54
2023/09/01 02:52:57;;;;;;;1.60;1.40;;;23.50;65.50;;;;;;222790;1266;22538;-55
2023/09/01 02:58:00;;;;;;;1.80;1.60;;;23.40;65.10;;;;;;222651;1261;22603;-55
2023/09/01 03:03:03;;;;;;;1.60;1.10;;;23.40;65.40;;;;;;222547;1266;22565;-54
2023/09/01 03:08:07;;;;;;;1.70;1.60;;;23.40;65.20;;;;;;222817;1260;22520;-50
2023/09/01 03:13:11;;;;;;;1.70;1.40;;;23.50;65.10;;;;;;222480;1266;24199;-52
2023/09/01 03:18:14;;;;;;;1.70;1.60;;;23.50;65.20;;;;;;222273;1254;24199;-53
2023/09/01 03:23:22;;;;;;;1.40;1.30;;;23.40;65.30;;;;;;222418;1264;25217;-50
2023/09/01 03:28:25;;;;;;;1.70;1.40;;;23.40;65.20;;;;;;222402;1261;24333;-51
2023/09/01 03:33:31;;;;;;;1.80;1.60;;;23.40;65.20;;;;;;222316;1268;22626;-54
2023/09/01 03:38:35;;;;;;;1.80;1.70;;;23.40;65.20;;;;;;222422;1263;22529;-53
2023/09/01 03:43:38;;;;;;;1.70;1.40;;;23.40;65.40;;;;;;222293;1266;22573;-53
2023/09/01 03:48:41;;;;;;;1.60;1.50;;;23.40;65.30;;;;;;222246;1266;22530;-54
2023/09/01 03:53:44;;;;;;;1.90;1.20;;;23.40;65.30;;;;;;222042;1269;22579;-54
2023/09/01 03:58:47;;;;;;;1.60;1.50;;;23.40;65.30;;;;;;222154;1257;22528;-54
2023/09/01 04:03:50;;;;;;;1.50;1.40;;;23.40;65.30;;;;;;222651;1266;22515;-53
2023/09/01 04:08:53;;;;;;;1.40;1.30;;;23.40;65.60;;;;;;222404;1268;22511;-54
2023/09/01 04:13:58;;;;;;;2.20;1.20;;;23.30;65.20;;;;;;222474;1261;22518;-52
2023/09/01 04:19:01;;;;;;;2.00;1.70;;;23.30;65.30;;;;;;222368;1257;23013;-54
2023/09/01 04:24:04;;;;;;;1.30;1.20;;;23.30;65.30;;;;;;222210;1266;22570;-52
2023/09/01 04:29:07;;;;;;;2.20;1.40;;;23.30;65.40;;;;;;222116;1267;22530;-52
2023/09/01 04:34:10;;;;;;;1.30;1.20;;;23.30;65.50;;;;;;222407;1253;24092;-50
2023/09/01 04:39:15;;;;;;;1.40;1.30;;;23.30;65.70;;;;;;222595;1269;22639;-52
2023/09/01 04:44:18;;;;;;;3.00;1.20;;;23.30;65.60;;;;;;222336;1268;22593;-49
2023/09/01 04:49:30;;;;;;;1.60;1.30;;;23.20;66.00;;;;;;222370;1266;24310;-52
2023/09/01 04:54:33;;;;;;;2.00;1.20;;;23.20;65.60;;;;;;222470;1261;25340;-50
2023/09/01 04:59:37;;;;;;;1.60;1.50;;;23.20;65.70;;;;;;222392;1268;22643;-51
2023/09/01 05:04:41;;;;;;;1.40;1.30;;;23.20;65.90;;;;;;222384;1266;22708;-53
2023/09/01 05:09:46;;;;;;;1.40;1.20;;;23.20;66.20;;;;;;222510;1266;26621;-50
2023/09/01 05:14:49;;;;;;;1.40;1.30;;;23.20;65.90;;;;;;222308;1268;22528;-53
2023/09/01 05:19:53;;;;;;;3.80;1.20;;;23.20;66.10;;;;;;222214;1269;24000;-53
2023/09/01 05:24:57;;;;;;;4.00;1.20;;;23.20;66.20;;;;;;222286;1267;22529;-52
2023/09/01 05:30:00;;;;;;;3.10;1.40;;;23.20;66.50;;;;;;222344;1268;24193;-53
2023/09/01 05:35:06;;;;;;;3.20;1.10;;;23.20;65.80;;;;;;222027;1266;22522;-54
2023/09/01 05:40:10;;;;;;;2.30;1.30;;;23.20;66.10;;;;;;222013;1268;25523;-51
2023/09/01 05:45:13;;;;;;;1.90;1.20;;;23.20;65.70;;;;;;222256;1255;22518;-55
2023/09/01 05:50:18;;;;;;;2.80;1.30;;;23.20;65.80;;;;;;222267;1261;22524;-52
2023/09/01 05:55:20;;;;;;;1.50;1.40;;;23.20;65.80;;;;;;222216;1263;22517;-51
2023/09/01 06:00:24;;;;;;;2.20;1.40;;;23.20;66.10;;;;;;222324;1268;23149;-52
2023/09/01 06:05:27;;;;;;;1.30;1.20;;;23.20;65.70;;;;;;222063;1263;24297;-54
2023/09/01 06:10:30;;;;;;;1.40;1.30;;;23.20;65.50;;;;;;222795;1267;22822;-51
2023/09/01 06:15:34;;;;;;;2.90;1.40;;;23.30;65.50;;;;;;222309;1256;24066;-53
2023/09/01 06:20:37;;;;;;;1.00;0.90;;;23.30;65.30;;;;;;222491;1268;25226;-51
2023/09/01 06:25:39;;;;;;;1.30;1.00;;;23.30;65.20;;;;;;222532;1261;22645;-53
2023/09/01 06:30:42;;;;;;;1.90;1.40;;;23.30;65.30;;;;;;222216;1268;23368;-53
2023/09/01 06:35:45;;;;;;;1.20;1.10;;;23.30;65.00;;;;;;222297;1261;22661;-54
2023/09/01 06:40:49;;;;;;;9.60;1.20;;;23.40;64.90;;;;;;222440;1267;24824;-51
2023/09/01 06:45:53;;;;;;;5.00;1.60;;;23.40;65.30;;;;;;222328;1247;22872;-53
2023/09/01 06:50:59;;;;;;;18.40;2.00;;;23.50;65.70;;;;;;222137;1264;22534;-53
2023/09/01 06:56:02;;;;;;;5.50;1.10;;;23.60;65.70;;;;;;222303;1266;25230;-51
2023/09/01 07:01:11;;;;;;;1.40;1.00;;;23.50;65.70;;;;;;222304;1267;25394;-52
2023/09/01 07:06:14;;;;;;;7.50;1.50;;;23.60;65.60;;;;;;222412;1256;25398;-53
2023/09/01 07:11:19;;;;;;;1.90;1.40;;;23.60;65.70;;;;;;222306;1267;24081;-51
2023/09/01 07:16:23;;;;;;;1.50;1.10;;;23.70;65.50;;;;;;222337;1264;24101;-52
2023/09/01 07:21:26;;;;;;;1.40;1.10;;;23.80;65.50;;;;;;222094;1268;22613;-53
2023/09/01 07:26:29;;;;;;;3.70;1.50;;;23.60;65.50;;;;;;222305;1258;22517;-52
2023/09/01 07:31:32;;;;;;;1.70;1.10;;;23.50;65.90;;;;;;222613;1268;22521;-52
2023/09/01 07:36:35;;;;;;;4.50;1.30;;;23.40;66.20;;;;;;222549;1268;22548;-53
2023/09/01 07:41:37;;;;;;;3.50;1.20;;;23.40;66.10;;;;;;222303;1268;22772;-53
2023/09/01 07:46:40;;;;;;;1.30;1.00;;;23.50;66.00;;;;;;222227;1261;23598;-52
2023/09/01 07:51:44;;;;;;;1.40;1.00;;;23.60;65.50;;;;;;222317;1268;23503;-50
2023/09/01 07:56:46;;;;;;;3.60;1.20;;;23.70;65.20;;;;;;222534;1266;23896;-48
2023/09/01 08:01:49;;;;;;;1.10;1.00;;;23.80;65.10;;;;;;222568;1267;22537;-51
2023/09/01 08:06:52;;;;;;;1.50;1.20;;;23.70;65.10;;;;;;222305;1268;22539;-48
2023/09/01 08:11:55;;;;;;;1.10;1.00;;;23.60;65.40;;;;;;222252;1268;22597;-47
2023/09/01 08:16:58;;;;;;;1.20;1.10;;;23.80;64.80;;;;;;222198;1246;24206;-62
2023/09/01 08:22:02;;;;;;;2.30;1.00;;;23.90;64.60;;;;;;222307;1260;22554;-55
2023/09/01 08:27:05;;;;;;;1.60;1.40;;;24.00;64.10;;;;;;222539;1261;22719;-54
2023/09/01 08:32:10;;;;;;;2.80;1.10;;;24.10;64.10;;;;;;222589;1264;22558;-56
2023/09/01 08:37:15;;;;;;;7.20;1.10;;;24.10;64.50;;;;;;222399;1260;24232;-56
2023/09/01 08:42:19;;;;;;;6.70;1.30;;;24.00;64.30;;;;;;222332;1250;25411;-58
2023/09/01 08:47:22;;;;;;;4.50;1.30;;;23.90;64.80;;;;;;222163;1260;23283;-56
2023/09/01 08:52:27;;;;;;;5.90;1.10;;;24.10;64.50;;;;;;223074;1266;23013;-56
2023/09/01 08:57:30;;;;;;;2.70;1.30;;;23.90;64.60;;;;;;222660;1264;22548;-54
2023/09/01 09:02:41;;;;;;;4.60;1.30;;;23.90;64.80;;;;;;222773;1267;22688;-54
2023/09/01 09:08:01;;;;;;;5.10;2.70;;;23.90;65.10;;;;;;222730;1266;23681;-57
2023/09/01 09:13:23;;;;;;;6.50;2.20;;;24.20;68.30;;;;;;223046;1257;23135;-55
2023/09/01 09:18:30;;;;;;;2.70;1.90;;;24.30;66.70;;;;;;223033;1260;22655;-57
2023/09/01 09:23:44;;;;;;;5.60;1.70;;;24.20;66.50;;;;;;222520;1268;25226;-55
2023/09/01 09:28:48;;;;;;;3.30;1.70;;;24.40;66.30;;;;;;222778;1253;22606;-55
2023/09/01 09:33:51;;;;;;;2.00;1.30;;;24.30;66.30;;;;;;222346;1267;22595;-56
2023/09/01 09:38:54;;;;;;;3.10;1.60;;;24.60;65.30;;;;;;222704;1267;22620;-53
2023/09/01 09:43:56;;;;;;;3.50;1.30;;;24.50;65.30;;;;;;222052;1265;22654;-52
2023/09/01 09:48:59;;;;;;;1.70;1.10;;;24.30;65.60;;;;;;221729;1266;25552;-53
2023/09/01 09:54:05;;;;;;;2.00;1.30;;;24.50;65.20;;;;;;229987;1267;22135;-54
2023/09/01 09:59:15;;;;;;;4.40;1.60;;;24.70;64.30;;;;;;230120;1268;22109;-56
2023/09/01 10:04:19;;;;;;;1.70;1.30;;;24.90;63.60;;;;;;225281;1266;22537;-56
2023/09/01 10:09:23;;;;;;;3.00;1.50;;;24.90;63.50;;;;;;222915;1268;22570;-55
2023/09/01 10:14:29;;;;;;;3.00;1.40;;;24.80;63.70;;;;;;222441;1267;22517;-55
2023/09/01 10:19:35;;;;;;;1.60;1.50;;;24.80;64.00;;;;;;222739;1265;22570;-54
2023/09/01 10:24:37;;;;;;;1.40;1.20;;;24.80;64.30;;;;;;222755;1266;22518;-56
2023/09/01 10:29:40;;;;;;;2.40;1.30;;;24.80;64.00;;;;;;222316;1261;22585;-56
2023/09/01 10:34:56;;;;;;;2.10;1.90;;;24.80;64.50;;;;;;222155;1268;22595;-58
2023/09/01 10:39:59;;;;;;;2.00;1.30;;;24.80;64.10;;;;;;222453;1268;22601;-56
2023/09/01 10:45:08;;;;;;;3.60;1.40;;;24.80;64.10;;;;;;222347;1266;22527;-63
2023/09/01 10:50:12;;;;;;;3.60;1.30;;;24.80;64.10;;;;;;222394;1261;22637;-56
2023/09/01 10:55:15;;;;;;;2.20;1.20;;;24.90;64.10;;;;;;222320;1266;22531;-56
2023/09/01 11:00:32;;;;;;;1.60;1.10;;;24.80;64.10;;;;;;222278;1256;22522;-55
2023/09/01 11:05:37;;;;;;;1.10;1.00;;;24.90;64.60;;;;;;222252;1264;25522;-56
2023/09/01 11:10:39;;;;;;;3.40;1.20;;;24.90;64.00;;;;;;222770;1260;22523;-54
2023/09/01 11:15:44;;;;;;;3.70;1.60;;;25.00;64.20;;;;;;222175;1268;22524;-56
2023/09/01 11:20:48;;;;;;;3.60;1.40;;;25.10;63.20;;;;;;222316;1268;22524;-55
2023/09/01 11:25:58;;;;;;;1.70;1.30;;;25.00;63.50;;;;;;222816;1266;22907;-56
2023/09/01 11:31:04;;;;;;;2.40;1.70;;;25.10;62.40;;;;;;222534;1268;25502;-56
2023/09/01 11:36:11;;;;;;;3.00;1.50;;;25.10;62.60;;;;;;222755;1263;22555;-51
2023/09/01 11:41:19;;;;;;;3.00;1.10;;;25.10;62.70;;;;;;222530;1261;23914;-55
2023/09/01 11:46:36;;;;;;;1.70;1.60;;;25.10;62.40;;;;;;222737;1268;22598;-53
2023/09/01 11:51:41;;;;;;;1.90;1.70;;;25.10;62.60;;;;;;222802;1260;22548;-53
2023/09/01 11:56:43;;;;;;;2.40;1.80;;;25.20;62.60;;;;;;222422;1253;23725;-53
2023/09/01 12:01:47;;;;;;;3.40;1.30;;;25.20;62.60;;;;;;222665;1261;22534;-54
2023/09/01 12:06:50;;;;;;;5.40;1.80;;;25.20;62.70;;;;;;222426;1267;22521;-53
2023/09/01 12:12:03;;;;;;;5.60;2.00;;;25.30;62.60;;;;;;222201;1263;22585;-53
2023/09/01 12:17:19;;;;;;;2.10;1.30;;;25.30;62.60;;;;;;222349;1263;311622;-53
2023/09/01 12:22:22;;;;;;;5.60;1.60;;;25.30;62.70;;;;;;222399;1268;25345;-54
2023/09/01 12:27:26;;;;;;;1.50;1.30;;;25.30;62.80;;;;;;222685;1260;22523;-53
2023/09/01 12:32:28;;;;;;;6.10;1.60;;;25.30;62.80;;;;;;222696;1267;23674;-53
2023/09/01 12:37:34;;;;;;;4.50;1.80;;;25.40;62.70;;;;;;222095;1266;22518;-53
2023/09/01 12:42:37;;;;;;;5.60;1.90;;;25.40;62.70;;;;;;222366;1263;22531;-57
2023/09/01 12:47:41;;;;;;;8.20;1.90;;;25.50;63.20;;;;;;222164;1261;22528;-52
2023/09/01 12:52:45;;;;;;;13.20;2.40;;;25.40;62.90;;;;;;222250;1268;23170;-51
2023/09/01 12:57:49;;;;;;;4.10;2.10;;;25.30;63.90;;;;;;222645;1266;24175;-52
2023/09/01 13:02:53;;;;;;;7.90;3.30;;;25.40;64.70;;;;;;222486;1266;22583;-52
2023/09/01 13:07:59;;;;;;;8.70;2.80;;;25.40;64.90;;;;;;222721;1263;22990;-53
2023/09/01 13:13:04;;;;;;;4.80;2.40;;;25.40;64.40;;;;;;223096;1262;24240;-50
2023/09/01 13:18:12;;;;;;;4.40;2.40;;;25.40;64.00;;;;;;222885;1268;22788;-49
2023/09/01 13:23:19;;;;;;;5.80;2.70;;;25.60;64.00;;;;;;223010;1263;22677;-47
2023/09/01 13:28:23;;;;;;;3.30;2.00;;;25.60;63.90;;;;;;222639;1268;22514;-49
2023/09/01 13:33:27;;;;;;;6.60;2.40;;;25.60;63.90;;;;;;222248;1268;24202;-49
2023/09/01 13:38:31;;;;;;;3.60;2.20;;;25.40;64.40;;;;;;223184;1254;24255;-50
2023/09/01 13:43:35;;;;;;;7.80;2.30;;;25.40;64.50;;;;;;222964;1266;24050;-46
2023/09/01 13:48:39;;;;;;;4.70;2.20;;;25.40;64.60;;;;;;223221;1261;25332;-51
2023/09/01 13:53:44;;;;;;;6.40;2.70;;;25.40;64.70;;;;;;222880;1266;25363;-48
2023/09/01 13:58:48;;;;;;;5.20;2.10;;;25.40;64.80;;;;;;222424;1267;22642;-50
2023/09/01 14:03:51;;;;;;;5.70;2.90;;;25.40;65.50;;;;;;222547;1253;22514;-48
2023/09/01 14:08:54;;;;;;;9.00;3.10;;;25.30;63.20;;;;;;222310;1265;22558;-50
2023/09/01 14:13:57;;;;;;;9.20;2.70;;;25.10;62.00;;;;;;222520;1266;22665;-49
2023/09/01 14:19:01;;;;;;;9.10;3.30;;;24.80;58.90;;;;;;222792;1268;22523;-49
2023/09/01 14:24:05;;;;;;;18.20;3.60;;;24.70;57.90;;;;;;222543;1265;24231;-46
2023/09/01 14:29:08;;;;;;;14.30;5.70;;;24.70;56.00;;;;;;223041;1261;22540;-48
2023/09/01 14:34:12;;;;;;;15.80;8.70;;;24.70;55.90;;;;;;222294;1259;22749;-47
2023/09/01 14:39:16;;;;;;;12.20;7.00;;;24.70;54.90;;;;;;222558;1268;23462;-49
2023/09/01 14:44:20;;;;;;;12.30;7.60;;;24.60;54.90;;;;;;222689;1263;23902;-49
2023/09/01 14:49:23;;;;;;;12.40;7.50;;;24.70;54.20;;;;;;222353;1260;24055;-50
2023/09/01 14:54:26;;;;;;;15.20;6.50;;;24.70;54.70;;;;;;222654;1264;25243;-47
2023/09/01 14:59:30;;;;;;;6.50;4.60;;;24.80;54.50;;;;;;222490;1256;22511;-49
2023/09/01 15:04:33;;;;;;;10.60;4.00;;;24.80;54.10;;;;;;222560;1254;22511;-47
2023/09/01 15:09:36;;;;;;;7.50;3.40;;;24.80;54.40;;;;;;222294;1263;22574;-49
2023/09/01 15:14:41;;;;;;;3.60;3.00;;;24.70;54.10;;;;;;222247;1260;22571;-48
2023/09/01 15:19:48;;;;;;;5.90;3.40;;;24.50;53.80;;;;;;222806;1263;24319;-49
2023/09/01 15:24:52;;;;;;;2.70;2.30;;;24.60;53.70;;;;;;222416;1263;22510;-47
2023/09/01 15:29:55;;;;;;;11.40;2.40;;;24.30;54.30;;;;;;222344;1266;22518;-48
2023/09/01 15:34:58;;;;;;;12.70;3.80;;;24.20;54.50;;;;;;222902;1263;22497;-49
2023/09/01 15:40:22;;;;;;;4.80;2.40;;;24.10;54.60;;;;;;222545;1260;24221;-49
2023/09/01 15:45:27;;;;;;;4.30;2.00;;;24.10;55.00;;;;;;222736;1263;25281;-47
2023/09/01 15:50:31;;;;;;;9.60;2.50;;;24.00;55.40;;;;;;222946;1253;25227;-47
2023/09/01 15:55:51;;;;;;;5.60;2.00;;;23.90;55.80;;;;;;222587;1268;22530;-48
2023/09/01 16:00:58;;;;;;;8.40;2.20;;;23.80;55.60;;;;;;222812;1266;25396;-46
2023/09/01 16:06:22;;;;;;;8.60;2.40;;;24.00;55.50;;;;;;223107;1265;22593;-50
2023/09/01 16:11:24;;;;;;;7.20;2.00;;;24.20;55.60;;;;;;223054;1247;22517;-47
2023/09/01 16:16:27;;;;;;;7.10;2.10;;;24.10;55.30;;;;;;223507;1266;24234;-45
2023/09/01 16:21:31;;;;;;;4.30;1.90;;;24.10;56.30;;;;;;223354;1263;22514;-44
2023/09/01 16:26:34;;;;;;;5.20;2.00;;;24.20;55.20;;;;;;222158;1266;25289;-47
2023/09/01 16:31:38;;;;;;;3.80;1.70;;;24.20;55.70;;;;;;222506;1268;23432;-47
2023/09/01 16:36:41;;;;;;;2.60;2.00;;;24.10;55.50;;;;;;222846;1266;22514;-46
2023/09/01 16:41:45;;;;;;;2.00;1.80;;;24.10;55.70;;;;;;222775;1263;22531;-47
2023/09/01 16:46:51;;;;;;;5.30;2.20;;;24.10;56.00;;;;;;222872;1268;24044;-48
2023/09/01 16:51:55;;;;;;;16.30;2.60;;;24.00;56.30;;;;;;222472;1263;22630;-48
2023/09/01 16:56:59;;;;;;;17.00;2.20;;;24.00;57.10;;;;;;222819;1257;22532;-48
2023/09/01 17:02:03;;;;;;;7.60;2.10;;;24.10;56.80;;;;;;222412;1263;22521;-47
2023/09/01 17:07:07;;;;;;;6.60;2.20;;;24.10;57.80;;;;;;222682;1252;25345;-51
2023/09/01 17:12:12;;;;;;;7.10;2.30;;;24.00;57.50;;;;;;222976;1253;23987;-45
2023/09/01 17:17:18;;;;;;;6.70;2.80;;;23.80;57.30;;;;;;222309;1256;22813;-50
2023/09/01 17:22:23;;;;;;;6.10;2.40;;;23.70;57.50;;;;;;222814;1260;22524;-51
2023/09/01 17:27:47;;;;;;;6.50;2.70;;;23.80;57.80;;;;;;222565;1263;24238;-53
2023/09/01 17:32:57;;;;;;;3.70;2.80;;;23.80;57.40;;;;;;222069;1263;22573;-50
2023/09/01 17:38:02;;;;;;;4.80;2.60;;;23.70;57.50;;;;;;222498;1267;24248;-49
2023/09/01 17:43:08;;;;;;;4.20;2.70;;;23.60;57.50;;;;;;223028;1260;22517;-49
2023/09/01 17:48:12;;;;;;;3.70;2.60;;;23.50;57.90;;;;;;222736;1263;24273;-50
2023/09/01 17:53:15;;;;;;;3.90;3.20;;;23.40;57.70;;;;;;222710;1267;24234;-50
2023/09/01 17:58:20;;;;;;;4.80;3.30;;;23.30;57.70;;;;;;223027;1262;23863;-48
2023/09/01 18:03:24;;;;;;;3.10;2.40;;;23.20;58.00;;;;;;223110;1262;23007;-56
2023/09/01 18:08:27;;;;;;;4.30;2.50;;;23.20;58.10;;;;;;222427;1268;23133;-53
2023/09/01 18:13:33;;;;;;;5.00;2.80;;;23.20;58.40;;;;;;222490;1262;22511;-54
2023/09/01 18:18:40;;;;;;;5.60;4.10;;;23.20;58.60;;;;;;222438;1266;24267;-53
2023/09/01 18:23:44;;;;;;;5.60;4.20;;;23.30;58.40;;;;;;222562;1263;22527;-53
2023/09/01 18:28:49;;;;;;;4.40;3.80;;;23.50;58.00;;;;;;222499;1266;24203;-55
2023/09/01 18:33:54;;;;;;;4.30;3.90;;;23.60;58.10;;;;;;222760;1263;22528;-54
2023/09/01 18:38:59;;;;;;;4.80;3.70;;;23.70;58.10;;;;;;222372;1260;22525;-54
2023/09/01 18:44:07;;;;;;;6.10;3.90;;;23.80;58.30;;;;;;222177;1248;24192;-53
2023/09/01 18:49:24;;;;;;;8.70;4.20;;;23.80;58.00;;;;;;222517;1263;24193;-56
2023/09/01 18:54:34;;;;;;;4.30;3.50;;;23.90;58.70;;;;;;222522;1266;26494;-46
2023/09/01 18:59:37;;;;;;;14.90;3.70;;;23.80;59.80;;;;;;222512;1268;22540;-45
2023/09/01 19:04:43;;;;;;;7.10;3.70;;;24.00;59.30;;;;;;222706;1268;22523;-46
2023/09/01 19:09:48;;;;;;;9.30;4.20;;;24.00;59.60;;;;;;222460;1263;22527;-47
2023/09/01 19:14:53;;;;;;;9.60;3.30;;;24.10;60.90;;;;;;221522;1269;22646;-45
2023/09/01 19:19:57;;;;;;;7.70;3.60;;;24.10;61.70;;;;;;221600;1265;26313;-47
2023/09/01 19:25:01;;;;;;;10.50;3.20;;;24.30;61.40;;;;;;221707;1271;25387;-48
2023/09/01 19:30:09;;;;;;;11.20;4.70;;;24.20;61.10;;;;;;221650;1265;25424;-47
2023/09/01 19:35:20;;;;;;;13.60;3.60;;;24.30;61.50;;;;;;221216;1272;25325;-46
2023/09/01 19:40:25;;;;;;;5.50;2.90;;;24.40;61.00;;;;;;221296;1268;24385;-48
2023/09/01 19:45:34;;;;;;;7.60;3.10;;;24.40;61.50;;;;;;221413;1274;22590;-47
2023/09/01 19:50:39;;;;;;;13.70;3.50;;;24.40;61.40;;;;;;221471;1271;22518;-48
2023/09/01 19:55:44;;;;;;;7.20;3.30;;;24.30;61.30;;;;;;221998;1266;25536;-46
2023/09/01 20:00:47;;;;;;;6.00;3.10;;;24.10;61.90;;;;;;222048;1264;24308;-46
2023/09/01 20:05:52;;;;;;;7.50;3.20;;;24.10;62.40;;;;;;221999;1269;25394;-45
2023/09/01 20:10:58;;;;;;;9.00;3.60;;;24.10;62.70;;;;;;222260;1270;24388;-45
2023/09/01 20:16:03;;;;;;;6.80;3.20;;;24.10;62.40;;;;;;221687;1269;22503;-49
2023/09/01 20:21:08;;;;;;;5.30;2.90;;;24.40;62.40;;;;;;222614;1260;26509;-47
2023/09/01 20:26:12;;;;;;;5.20;3.00;;;24.40;61.80;;;;;;222763;1261;22639;-46
2023/09/01 20:31:17;;;;;;;6.80;3.00;;;24.30;61.90;;;;;;222419;1266;22517;-46
2023/09/01 20:36:21;;;;;;;4.50;3.00;;;24.30;61.80;;;;;;222774;1266;22524;-53
2023/09/01 20:41:25;;;;;;;6.80;3.40;;;24.20;62.20;;;;;;222397;1263;22524;-51
2023/09/01 20:46:29;;;;;;;3.40;3.10;;;24.40;61.90;;;;;;222215;1269;22524;-51
2023/09/01 20:51:32;;;;;;;8.30;3.10;;;24.40;61.70;;;;;;222852;1268;22504;-52
2023/09/01 20:56:36;;;;;;;5.10;3.30;;;24.40;61.40;;;;;;222405;1266;22514;-52
2023/09/01 21:01:39;;;;;;;3.40;3.10;;;24.40;61.30;;;;;;222608;1268;22520;-53
2023/09/01 21:06:43;;;;;;;4.70;3.00;;;24.30;61.40;;;;;;222517;1266;22517;-53
2023/09/01 21:11:47;;;;;;;4.20;2.90;;;24.10;61.50;;;;;;222480;1269;22524;-52
2023/09/01 21:16:50;;;;;;;7.00;3.10;;;24.10;62.40;;;;;;222383;1250;24208;-53
2023/09/01 21:21:55;;;;;;;5.30;3.00;;;24.20;63.30;;;;;;222743;1256;24205;-51
2023/09/01 21:27:01;;;;;;;4.80;3.20;;;24.20;65.60;;;;;;222102;1266;22639;-48
2023/09/01 21:32:04;;;;;;;9.30;3.50;;;24.10;65.00;;;;;;222589;1266;24557;-50
2023/09/01 21:37:07;;;;;;;15.40;4.90;;;24.30;66.40;;;;;;222694;1268;22536;-50
2023/09/01 21:42:18;;;;;;;13.60;3.90;;;24.30;69.40;;;;;;222339;1268;22644;-52
2023/09/01 21:47:21;;;;;;;6.50;4.00;;;24.30;68.00;;;;;;222201;1257;22543;-51
2023/09/01 21:52:23;;;;;;;10.50;3.40;;;24.30;67.20;;;;;;222319;1263;22711;-50
2023/09/01 21:57:29;;;;;;;8.00;3.60;;;24.30;66.90;;;;;;222041;1262;22639;-51
2023/09/01 22:02:32;;;;;;;10.50;3.30;;;24.30;66.60;;;;;;222665;1254;25277;-50
2023/09/01 22:07:35;;;;;;;9.00;4.00;;;24.30;66.50;;;;;;222192;1260;22517;-52
2023/09/01 22:12:39;;;;;;;7.90;3.70;;;24.30;66.70;;;;;;222334;1260;22549;-52
2023/09/01 22:17:42;;;;;;;6.30;3.20;;;24.30;66.20;;;;;;222893;1263;22595;-51
2023/09/01 22:22:45;;;;;;;6.70;3.50;;;24.30;66.20;;;;;;222342;1269;25284;-54
2023/09/01 22:27:48;;;;;;;7.10;3.00;;;24.30;67.40;;;;;;222432;1263;25113;-49
2023/09/01 22:32:50;;;;;;;8.00;4.00;;;24.30;67.10;;;;;;222221;1268;22655;-56
2023/09/01 22:37:53;;;;;;;7.10;2.80;;;24.30;66.80;;;;;;222185;1266;23893;-57
2023/09/01 22:43:15;;;;;;;7.40;3.10;;;24.30;66.50;;;;;;222270;1260;22547;-57
2023/09/01 22:48:18;;;;;;;7.80;3.40;;;24.30;66.50;;;;;;222447;1260;22538;-56
2023/09/01 22:53:21;;;;;;;4.70;3.00;;;24.30;66.50;;;;;;222554;1264;23937;-57
2023/09/01 22:58:24;;;;;;;5.00;3.40;;;24.30;66.60;;;;;;222428;1266;22571;-56
2023/09/01 23:03:28;;;;;;;5.70;3.50;;;24.30;66.50;;;;;;222567;1268;24360;-56
2023/09/01 23:08:31;;;;;;;6.30;3.20;;;24.20;66.40;;;;;;222430;1268;24193;-57
2023/09/01 23:13:34;;;;;;;4.70;3.10;;;24.30;66.50;;;;;;222465;1269;22533;-57
2023/09/01 23:18:37;;;;;;;4.30;3.40;;;24.20;66.70;;;;;;222297;1264;24205;-58
2023/09/01 23:23:39;;;;;;;4.10;3.50;;;24.20;66.30;;;;;;222254;1268;22745;-58
2023/09/01 23:28:45;;;;;;;4.10;2.80;;;24.20;66.30;;;;;;222359;1268;22639;-57
2023/09/01 23:33:48;;;;;;;4.00;3.00;;;24.20;66.40;;;;;;222705;1263;23896;-57
2023/09/01 23:38:51;;;;;;;5.80;2.80;;;24.20;66.40;;;;;;222461;1263;22646;-57
2023/09/01 23:43:54;;;;;;;3.90;2.70;;;24.30;66.40;;;;;;222179;1266;24241;-58
2023/09/01 23:48:56;;;;;;;3.50;2.70;;;24.20;66.20;;;;;;222611;1266;22662;-57
2023/09/01 23:53:59;;;;;;;5.90;2.60;;;24.20;66.20;;;;;;222407;1266;22820;-58
2023/09/01 23:59:02;;;;;;;6.00;2.90;;;24.20;66.20;;;;;;222119;1268;22634;-56
